sensor_id;sensor_type;location;lat;lon;timestamp;pressure;altitude;pressure_sealevel;temperature;humidity
32109;BME280;18624;50.042;8.436;2022-07-29T00:00:55;100328.34;;;23.26;37.83
32109;BME280;18624;50.042;8.436;2022-07-29T00:03:22;100272.16;;;22.88;37.26
32109;BME280;18624;50.042;8.436;2022-07-29T00:05:48;100294.91;;;23.09;37.16
32109;BME280;18624;50.042;8.436;2022-07-29T00:08:14;100218.97;;;22.58;36.80
32109;BME280;18624;50.042;8.436;2022-07-29T00:10:42;100246.03;;;22.80;36.84
32109;BME280;18624;50.042;8.436;2022-07-29T00:13:08;100293.59;;;23.16;36.62
32109;BME280;18624;50.042;8.436;2022-07-29T00:15:34;100290.53;;;23.19;35.87
32109;BME280;18624;50.042;8.436;2022-07-29T00:18:01;100282.91;;;23.20;35.67
32109;BME280;18624;50.042;8.436;2022-07-29T00:20:27;100302.31;;;23.42;35.55
32109;BME280;18624;50.042;8.436;2022-07-29T00:22:54;100293.78;;;23.29;35.84
32109;BME280;18624;50.042;8.436;2022-07-29T00:25:20;100299.53;;;23.42;36.03
32109;BME280;18624;50.042;8.436;2022-07-29T00:27:47;100275.72;;;23.30;35.76
32109;BME280;18624;50.042;8.436;2022-07-29T00:30:13;100281.03;;;23.34;35.70
32109;BME280;18624;50.042;8.436;2022-07-29T00:32:40;100293.19;;;23.36;35.95
32109;BME280;18624;50.042;8.436;2022-07-29T00:35:06;100259.06;;;23.13;36.01
32109;BME280;18624;50.042;8.436;2022-07-29T00:38:14;100284.59;;;23.34;36.00
32109;BME280;18624;50.042;8.436;2022-07-29T00:40:41;100275.94;;;23.32;35.96
32109;BME280;18624;50.042;8.436;2022-07-29T00:43:10;100200.03;;;22.81;35.37
32109;BME280;18624;50.042;8.436;2022-07-29T00:45:37;100275.66;;;23.36;35.71
32109;BME280;18624;50.042;8.436;2022-07-29T00:48:05;100177.78;;;22.70;35.61
32109;BME280;18624;50.042;8.436;2022-07-29T00:50:32;100261.03;;;23.24;35.72
32109;BME280;18624;50.042;8.436;2022-07-29T00:52:59;100266.13;;;23.20;36.11
32109;BME280;18624;50.042;8.436;2022-07-29T00:55:26;100259.47;;;23.23;35.90
32109;BME280;18624;50.042;8.436;2022-07-29T00:57:53;100229.41;;;22.99;35.75
32109;BME280;18624;50.042;8.436;2022-07-29T01:00:22;100233.72;;;23.00;35.87
32109;BME280;18624;50.042;8.436;2022-07-29T01:02:50;100224.84;;;22.96;35.98
32109;BME280;18624;50.042;8.436;2022-07-29T01:05:18;100252.16;;;23.14;35.83
32109;BME280;18624;50.042;8.436;2022-07-29T01:07:45;100177.53;;;22.68;35.98
32109;BME280;18624;50.042;8.436;2022-07-29T01:10:14;100238.34;;;22.97;35.98
32109;BME280;18624;50.042;8.436;2022-07-29T01:12:42;100199.06;;;22.73;36.31
32109;BME280;18624;50.042;8.436;2022-07-29T01:15:10;100243.88;;;23.03;36.02
32109;BME280;18624;50.042;8.436;2022-07-29T01:17:46;100110.81;;;22.17;36.50
32109;BME280;18624;50.042;8.436;2022-07-29T01:26:22;100193.25;;;22.71;36.71
32109;BME280;18624;50.042;8.436;2022-07-29T01:29:02;100224.63;;;22.94;36.98
32109;BME280;18624;50.042;8.436;2022-07-29T01:35:02;100226.41;;;22.91;36.92
32109;BME280;18624;50.042;8.436;2022-07-29T01:37:43;100150.28;;;22.38;37.20
32109;BME280;18624;50.042;8.436;2022-07-29T01:40:20;100209.44;;;22.78;37.22
32109;BME280;18624;50.042;8.436;2022-07-29T01:42:51;100224.91;;;22.85;37.21
32109;BME280;18624;50.042;8.436;2022-07-29T01:45:27;100171.09;;;22.43;37.55
32109;BME280;18624;50.042;8.436;2022-07-29T01:48:08;100224.66;;;22.83;37.39
32109;BME280;18624;50.042;8.436;2022-07-29T01:50:41;100215.34;;;22.69;37.68
32109;BME280;18624;50.042;8.436;2022-07-29T01:53:12;100217.88;;;22.72;38.30
32109;BME280;18624;50.042;8.436;2022-07-29T01:55:42;100210.88;;;22.55;38.51
32109;BME280;18624;50.042;8.436;2022-07-29T01:58:11;100146.06;;;22.20;38.72
32109;BME280;18624;50.042;8.436;2022-07-29T02:00:39;100213.34;;;22.64;38.86
32109;BME280;18624;50.042;8.436;2022-07-29T02:03:11;100219.47;;;22.62;38.72
32109;BME280;18624;50.042;8.436;2022-07-29T02:05:39;100127.59;;;22.12;39.18
32109;BME280;18624;50.042;8.436;2022-07-29T02:08:07;100210.81;;;22.60;39.19
32109;BME280;18624;50.042;8.436;2022-07-29T02:10:36;100169.91;;;22.21;39.47
32109;BME280;18624;50.042;8.436;2022-07-29T02:13:05;100213.66;;;22.55;39.46
32109;BME280;18624;50.042;8.436;2022-07-29T02:15:34;100201.78;;;22.43;40.01
32109;BME280;18624;50.042;8.436;2022-07-29T02:18:05;100172.97;;;22.18;39.72
32109;BME280;18624;50.042;8.436;2022-07-29T02:20:34;100194.44;;;22.40;39.57
32109;BME280;18624;50.042;8.436;2022-07-29T02:23:02;100203.56;;;22.40;39.70
32109;BME280;18624;50.042;8.436;2022-07-29T02:25:30;100227.41;;;22.47;39.76
32109;BME280;18624;50.042;8.436;2022-07-29T02:28:05;100196.56;;;22.17;41.06
32109;BME280;18624;50.042;8.436;2022-07-29T02:30:34;100148.97;;;21.87;41.72
32109;BME280;18624;50.042;8.436;2022-07-29T02:33:03;100093.81;;;21.46;43.22
32109;BME280;18624;50.042;8.436;2022-07-29T02:35:32;100179.09;;;21.99;43.67
32109;BME280;18624;50.042;8.436;2022-07-29T02:38:01;100200.13;;;22.06;43.11
32109;BME280;18624;50.042;8.436;2022-07-29T02:40:48;100135.34;;;21.55;44.27
32109;BME280;18624;50.042;8.436;2022-07-29T02:43:17;100224.53;;;21.94;44.33
32109;BME280;18624;50.042;8.436;2022-07-29T02:45:45;100203.47;;;21.88;44.19
32109;BME280;18624;50.042;8.436;2022-07-29T02:48:20;100173.38;;;21.58;44.73
32109;BME280;18624;50.042;8.436;2022-07-29T02:50:53;100139.97;;;21.36;45.34
32109;BME280;18624;50.042;8.436;2022-07-29T02:53:25;100147.56;;;21.35;45.07
32109;BME280;18624;50.042;8.436;2022-07-29T02:56:03;100146.81;;;21.40;45.20
32109;BME280;18624;50.042;8.436;2022-07-29T02:58:32;100178.47;;;21.54;45.20
32109;BME280;18624;50.042;8.436;2022-07-29T03:01:03;100158.97;;;21.32;45.47
32109;BME280;18624;50.042;8.436;2022-07-29T03:03:34;100144.00;;;21.18;45.68
32109;BME280;18624;50.042;8.436;2022-07-29T03:06:03;100208.59;;;21.61;45.77
32109;BME280;18624;50.042;8.436;2022-07-29T03:08:30;100193.69;;;21.42;46.22
32109;BME280;18624;50.042;8.436;2022-07-29T03:10:58;100204.06;;;21.53;46.27
32109;BME280;18624;50.042;8.436;2022-07-29T03:13:27;100199.00;;;21.51;46.49
32109;BME280;18624;50.042;8.436;2022-07-29T03:15:56;100182.28;;;21.34;46.70
32109;BME280;18624;50.042;8.436;2022-07-29T03:18:24;100191.91;;;21.39;47.10
32109;BME280;18624;50.042;8.436;2022-07-29T03:20:51;100195.44;;;21.34;47.50
32109;BME280;18624;50.042;8.436;2022-07-29T03:23:21;100197.22;;;21.26;47.83
32109;BME280;18624;50.042;8.436;2022-07-29T03:25:52;100198.75;;;21.21;48.27
32109;BME280;18624;50.042;8.436;2022-07-29T03:28:20;100191.38;;;21.18;48.48
32109;BME280;18624;50.042;8.436;2022-07-29T03:30:47;100073.31;;;20.37;48.94
32109;BME280;18624;50.042;8.436;2022-07-29T03:33:15;100194.16;;;21.07;49.61
32109;BME280;18624;50.042;8.436;2022-07-29T03:35:41;100189.84;;;21.06;50.05
32109;BME280;18624;50.042;8.436;2022-07-29T03:38:08;100148.06;;;20.78;52.03
32109;BME280;18624;50.042;8.436;2022-07-29T03:40:41;100149.06;;;20.69;53.82
32109;BME280;18624;50.042;8.436;2022-07-29T03:43:09;100167.78;;;20.74;55.15
32109;BME280;18624;50.042;8.436;2022-07-29T03:45:37;100050.94;;;19.97;57.06
32109;BME280;18624;50.042;8.436;2022-07-29T03:48:10;100180.97;;;20.85;58.90
32109;BME280;18624;50.042;8.436;2022-07-29T03:50:39;100173.34;;;20.80;60.29
32109;BME280;18624;50.042;8.436;2022-07-29T03:53:05;100193.88;;;20.82;60.86
32109;BME280;18624;50.042;8.436;2022-07-29T03:55:45;100161.66;;;20.47;60.85
32109;BME280;18624;50.042;8.436;2022-07-29T03:58:14;100187.00;;;20.66;60.75
32109;BME280;18624;50.042;8.436;2022-07-29T04:00:42;100137.81;;;20.35;60.40
32109;BME280;18624;50.042;8.436;2022-07-29T04:03:09;100188.78;;;20.69;60.56
32109;BME280;18624;50.042;8.436;2022-07-29T04:05:37;100200.22;;;20.71;60.71
32109;BME280;18624;50.042;8.436;2022-07-29T04:08:03;100163.66;;;20.47;62.39
32109;BME280;18624;50.042;8.436;2022-07-29T04:10:30;100132.22;;;20.24;63.10
32109;BME280;18624;50.042;8.436;2022-07-29T04:13:01;100073.94;;;19.87;64.05
32109;BME280;18624;50.042;8.436;2022-07-29T04:15:27;100205.25;;;20.67;65.04
32109;BME280;18624;50.042;8.436;2022-07-29T04:17:56;100204.47;;;20.61;65.50
32109;BME280;18624;50.042;8.436;2022-07-29T04:20:23;100196.31;;;20.46;65.96
32109;BME280;18624;50.042;8.436;2022-07-29T04:22:49;100216.34;;;20.56;66.31
32109;BME280;18624;50.042;8.436;2022-07-29T04:25:16;100199.84;;;20.41;66.69
32109;BME280;18624;50.042;8.436;2022-07-29T04:27:42;100219.09;;;20.45;67.36
32109;BME280;18624;50.042;8.436;2022-07-29T04:30:26;100218.31;;;20.44;67.59
32109;BME280;18624;50.042;8.436;2022-07-29T04:32:53;100120.16;;;19.73;68.03
32109;BME280;18624;50.042;8.436;2022-07-29T04:35:19;100222.34;;;20.38;67.79
32109;BME280;18624;50.042;8.436;2022-07-29T04:37:46;100206.09;;;20.25;67.63
32109;BME280;18624;50.042;8.436;2022-07-29T04:40:12;100223.38;;;20.40;67.50
32109;BME280;18624;50.042;8.436;2022-07-29T04:42:39;100169.59;;;20.06;67.66
32109;BME280;18624;50.042;8.436;2022-07-29T04:45:13;100248.41;;;20.40;67.78
32109;BME280;18624;50.042;8.436;2022-07-29T04:47:40;100171.09;;;20.02;67.64
32109;BME280;18624;50.042;8.436;2022-07-29T04:50:07;100196.22;;;20.18;67.48
32109;BME280;18624;50.042;8.436;2022-07-29T04:52:34;100163.47;;;19.96;67.44
32109;BME280;18624;50.042;8.436;2022-07-29T04:55:02;100226.16;;;20.40;67.57
32109;BME280;18624;50.042;8.436;2022-07-29T04:57:30;100182.75;;;20.06;67.67
32109;BME280;18624;50.042;8.436;2022-07-29T04:59:56;100217.75;;;20.35;67.51
32109;BME280;18624;50.042;8.436;2022-07-29T05:02:23;100169.03;;;19.96;67.53
32109;BME280;18624;50.042;8.436;2022-07-29T05:04:49;100228.13;;;20.29;67.60
32109;BME280;18624;50.042;8.436;2022-07-29T05:07:16;100232.94;;;20.28;67.51
32109;BME280;18624;50.042;8.436;2022-07-29T05:09:43;100192.56;;;19.95;67.47
32109;BME280;18624;50.042;8.436;2022-07-29T05:12:09;100228.56;;;20.16;67.20
32109;BME280;18624;50.042;8.436;2022-07-29T05:14:37;100183.13;;;19.82;66.43
32109;BME280;18624;50.042;8.436;2022-07-29T05:17:03;100161.38;;;19.80;65.59
32109;BME280;18624;50.042;8.436;2022-07-29T05:19:30;100242.78;;;20.29;65.61
32109;BME280;18624;50.042;8.436;2022-07-29T05:21:56;100139.25;;;19.60;65.79
32109;BME280;18624;50.042;8.436;2022-07-29T05:24:23;100236.75;;;20.36;65.98
32109;BME280;18624;50.042;8.436;2022-07-29T05:26:49;100233.75;;;20.40;65.86
32109;BME280;18624;50.042;8.436;2022-07-29T05:29:15;100235.72;;;20.28;66.08
32109;BME280;18624;50.042;8.436;2022-07-29T05:32:03;100235.69;;;20.22;66.54
32109;BME280;18624;50.042;8.436;2022-07-29T05:34:30;100154.94;;;19.63;66.69
32109;BME280;18624;50.042;8.436;2022-07-29T05:36:57;100226.00;;;20.12;66.40
32109;BME280;18624;50.042;8.436;2022-07-29T05:39:23;100160.06;;;19.70;64.81
32109;BME280;18624;50.042;8.436;2022-07-29T05:42:09;100239.50;;;20.31;62.24
32109;BME280;18624;50.042;8.436;2022-07-29T05:44:37;100233.69;;;20.34;62.40
32109;BME280;18624;50.042;8.436;2022-07-29T05:47:04;100237.28;;;20.40;61.28
32109;BME280;18624;50.042;8.436;2022-07-29T05:49:30;100237.25;;;20.35;61.69
32109;BME280;18624;50.042;8.436;2022-07-29T05:51:57;100246.13;;;20.39;59.69
32109;BME280;18624;50.042;8.436;2022-07-29T05:54:24;100242.59;;;20.44;59.13
32109;BME280;18624;50.042;8.436;2022-07-29T05:56:51;100191.84;;;20.06;59.24
32109;BME280;18624;50.042;8.436;2022-07-29T05:59:18;100165.28;;;20.00;58.34
32109;BME280;18624;50.042;8.436;2022-07-29T06:01:44;100242.91;;;20.52;57.68
32109;BME280;18624;50.042;8.436;2022-07-29T06:04:11;100225.88;;;20.44;57.74
32109;BME280;18624;50.042;8.436;2022-07-29T06:06:38;100237.34;;;20.57;57.39
32109;BME280;18624;50.042;8.436;2022-07-29T06:09:04;100242.69;;;20.66;55.89
32109;BME280;18624;50.042;8.436;2022-07-29T06:11:37;100234.84;;;20.59;56.19
32109;BME280;18624;50.042;8.436;2022-07-29T06:14:04;100256.38;;;20.70;55.67
32109;BME280;18624;50.042;8.436;2022-07-29T06:16:30;100246.75;;;20.71;56.20
32109;BME280;18624;50.042;8.436;2022-07-29T06:18:57;100228.78;;;20.61;56.09
32109;BME280;18624;50.042;8.436;2022-07-29T06:21:23;100194.72;;;20.34;56.53
32109;BME280;18624;50.042;8.436;2022-07-29T06:23:50;100228.81;;;20.72;56.06
32109;BME280;18624;50.042;8.436;2022-07-29T06:26:16;100252.38;;;20.88;54.86
32109;BME280;18624;50.042;8.436;2022-07-29T06:28:43;100194.84;;;20.62;53.88
32109;BME280;18624;50.042;8.436;2022-07-29T06:31:09;100094.94;;;19.99;53.45
32109;BME280;18624;50.042;8.436;2022-07-29T06:33:36;100195.41;;;20.72;53.17
32109;BME280;18624;50.042;8.436;2022-07-29T06:36:04;100256.75;;;21.22;51.72
32109;BME280;18624;50.042;8.436;2022-07-29T06:38:33;100250.41;;;21.28;51.02
32109;BME280;18624;50.042;8.436;2022-07-29T06:41:08;100264.13;;;21.31;51.64
32109;BME280;18624;50.042;8.436;2022-07-29T06:43:39;100255.78;;;21.42;49.96
32109;BME280;18624;50.042;8.436;2022-07-29T06:46:17;100145.25;;;20.78;50.05
32109;BME280;18624;50.042;8.436;2022-07-29T06:48:45;100199.75;;;21.23;50.19
32109;BME280;18624;50.042;8.436;2022-07-29T06:51:12;100244.88;;;21.67;49.80
32109;BME280;18624;50.042;8.436;2022-07-29T06:53:39;100232.44;;;21.68;49.69
32109;BME280;18624;50.042;8.436;2022-07-29T06:56:24;100246.34;;;21.90;48.88
32109;BME280;18624;50.042;8.436;2022-07-29T06:58:51;100145.28;;;21.34;48.63
32109;BME280;18624;50.042;8.436;2022-07-29T07:01:17;100153.09;;;21.52;47.15
32109;BME280;18624;50.042;8.436;2022-07-29T07:03:44;100188.28;;;21.83;47.86
32109;BME280;18624;50.042;8.436;2022-07-29T07:06:10;100158.88;;;21.82;46.51
32109;BME280;18624;50.042;8.436;2022-07-29T07:08:40;100261.09;;;22.66;46.08
32109;BME280;18624;50.042;8.436;2022-07-29T07:11:06;100227.66;;;22.49;46.25
32109;BME280;18624;50.042;8.436;2022-07-29T07:13:33;100272.91;;;22.89;45.67
32109;BME280;18624;50.042;8.436;2022-07-29T07:16:02;100151.38;;;22.18;45.35
32109;BME280;18624;50.042;8.436;2022-07-29T07:18:29;100266.75;;;23.02;44.57
32109;BME280;18624;50.042;8.436;2022-07-29T07:20:56;100276.94;;;23.35;43.84
32109;BME280;18624;50.042;8.436;2022-07-29T07:23:23;100284.22;;;23.49;41.79
32109;BME280;18624;50.042;8.436;2022-07-29T07:25:50;100282.59;;;23.59;43.31
32109;BME280;18624;50.042;8.436;2022-07-29T07:28:17;100129.66;;;22.83;41.80
32109;BME280;18624;50.042;8.436;2022-07-29T07:30:50;100285.78;;;24.05;41.75
32109;BME280;18624;50.042;8.436;2022-07-29T07:33:16;100258.81;;;24.02;41.87
32109;BME280;18624;50.042;8.436;2022-07-29T07:35:42;100278.03;;;24.41;40.40
32109;BME280;18624;50.042;8.436;2022-07-29T07:38:10;100217.44;;;24.13;40.00
32109;BME280;18624;50.042;8.436;2022-07-29T07:40:37;100282.50;;;24.68;39.36
32109;BME280;18624;50.042;8.436;2022-07-29T07:43:03;100283.03;;;24.67;40.18
32109;BME280;18624;50.042;8.436;2022-07-29T07:45:30;100207.16;;;24.21;39.76
32109;BME280;18624;50.042;8.436;2022-07-29T07:47:58;100253.78;;;24.62;39.63
32109;BME280;18624;50.042;8.436;2022-07-29T07:50:25;100189.31;;;24.24;39.46
32109;BME280;18624;50.042;8.436;2022-07-29T07:52:54;100281.06;;;24.81;38.38
32109;BME280;18624;50.042;8.436;2022-07-29T07:55:24;100276.28;;;24.75;39.48
32109;BME280;18624;50.042;8.436;2022-07-29T07:57:52;100273.34;;;24.68;38.78
32109;BME280;18624;50.042;8.436;2022-07-29T08:00:18;100119.91;;;23.55;38.90
32109;BME280;18624;50.042;8.436;2022-07-29T08:02:49;100252.50;;;24.44;39.05
32109;BME280;18624;50.042;8.436;2022-07-29T08:05:16;100254.53;;;24.44;38.91
32109;BME280;18624;50.042;8.436;2022-07-29T08:07:46;100271.22;;;24.55;39.09
32109;BME280;18624;50.042;8.436;2022-07-29T08:10:15;100280.88;;;24.54;39.17
32109;BME280;18624;50.042;8.436;2022-07-29T08:13:08;100276.97;;;24.63;39.67
32109;BME280;18624;50.042;8.436;2022-07-29T08:15:38;100280.94;;;24.73;39.26
32109;BME280;18624;50.042;8.436;2022-07-29T08:18:05;100151.13;;;23.84;40.03
32109;BME280;18624;50.042;8.436;2022-07-29T08:20:35;100054.47;;;23.39;40.81
32109;BME280;18624;50.042;8.436;2022-07-29T08:23:02;100279.78;;;25.00;39.60
32109;BME280;18624;50.042;8.436;2022-07-29T08:25:29;100190.09;;;24.44;40.96
32109;BME280;18624;50.042;8.436;2022-07-29T08:27:55;100168.53;;;24.39;39.59
32109;BME280;18624;50.042;8.436;2022-07-29T08:30:21;100280.78;;;25.22;40.58
32109;BME280;18624;50.042;8.436;2022-07-29T08:32:48;100234.47;;;24.96;39.15
32109;BME280;18624;50.042;8.436;2022-07-29T08:35:21;100194.09;;;24.67;39.23
32109;BME280;18624;50.042;8.436;2022-07-29T08:37:47;100257.78;;;25.23;39.65
32109;BME280;18624;50.042;8.436;2022-07-29T08:40:14;100276.16;;;25.38;39.19
32109;BME280;18624;50.042;8.436;2022-07-29T08:42:41;100222.47;;;25.15;39.98
32109;BME280;18624;50.042;8.436;2022-07-29T08:45:08;100272.00;;;25.58;38.87
32109;BME280;18624;50.042;8.436;2022-07-29T08:47:35;100270.94;;;25.61;39.38
32109;BME280;18624;50.042;8.436;2022-07-29T08:50:07;100273.56;;;25.72;40.71
32109;BME280;18624;50.042;8.436;2022-07-29T08:52:37;100288.13;;;25.70;39.28
32109;BME280;18624;50.042;8.436;2022-07-29T08:55:05;100279.91;;;25.59;38.78
32109;BME280;18624;50.042;8.436;2022-07-29T08:57:33;100154.38;;;24.69;40.46
32109;BME280;18624;50.042;8.436;2022-07-29T09:00:05;100260.88;;;25.52;40.01
32109;BME280;18624;50.042;8.436;2022-07-29T09:02:39;100282.19;;;25.74;40.70
32109;BME280;18624;50.042;8.436;2022-07-29T09:05:08;100236.72;;;25.49;40.83
32109;BME280;18624;50.042;8.436;2022-07-29T09:07:35;100227.63;;;25.43;39.04
32109;BME280;18624;50.042;8.436;2022-07-29T09:10:02;100281.59;;;25.81;40.17
32109;BME280;18624;50.042;8.436;2022-07-29T09:12:30;100282.91;;;25.93;41.42
32109;BME280;18624;50.042;8.436;2022-07-29T09:15:03;100236.75;;;25.75;41.05
32109;BME280;18624;50.042;8.436;2022-07-29T09:17:46;100273.97;;;26.08;40.48
32109;BME280;18624;50.042;8.436;2022-07-29T09:20:18;100270.91;;;26.19;41.00
32109;BME280;18624;50.042;8.436;2022-07-29T09:22:45;100259.38;;;26.23;40.64
32109;BME280;18624;50.042;8.436;2022-07-29T09:25:35;100215.63;;;26.01;39.08
32109;BME280;18624;50.042;8.436;2022-07-29T09:28:10;100213.06;;;25.90;39.36
32109;BME280;18624;50.042;8.436;2022-07-29T09:30:57;100269.41;;;26.32;39.18
32109;BME280;18624;50.042;8.436;2022-07-29T09:33:31;100223.09;;;26.12;39.74
32109;BME280;18624;50.042;8.436;2022-07-29T09:36:05;100258.81;;;26.51;39.08
32109;BME280;18624;50.042;8.436;2022-07-29T09:38:32;100236.00;;;26.41;39.98
32109;BME280;18624;50.042;8.436;2022-07-29T09:41:00;100254.56;;;26.71;40.66
32109;BME280;18624;50.042;8.436;2022-07-29T09:43:32;100247.94;;;26.82;39.93
32109;BME280;18624;50.042;8.436;2022-07-29T09:46:11;100231.19;;;26.76;39.14
32109;BME280;18624;50.042;8.436;2022-07-29T09:48:38;100209.28;;;26.61;38.86
32109;BME280;18624;50.042;8.436;2022-07-29T09:51:05;100182.50;;;26.47;39.53
32109;BME280;18624;50.042;8.436;2022-07-29T09:53:46;100224.13;;;26.83;39.59
32109;BME280;18624;50.042;8.436;2022-07-29T09:56:13;100203.84;;;26.76;38.55
32109;BME280;18624;50.042;8.436;2022-07-29T09:58:40;100123.22;;;26.24;37.59
32109;BME280;18624;50.042;8.436;2022-07-29T10:01:06;100239.78;;;26.91;38.06
32109;BME280;18624;50.042;8.436;2022-07-29T10:03:50;100253.44;;;26.87;37.89
32109;BME280;18624;50.042;8.436;2022-07-29T10:06:16;100252.75;;;26.94;40.14
32109;BME280;18624;50.042;8.436;2022-07-29T10:08:43;100219.44;;;26.98;38.96
32109;BME280;18624;50.042;8.436;2022-07-29T10:11:12;100160.09;;;26.68;38.58
32109;BME280;18624;50.042;8.436;2022-07-29T10:13:41;100242.03;;;27.27;37.39
32109;BME280;18624;50.042;8.436;2022-07-29T10:16:08;100219.50;;;27.06;38.72
32109;BME280;18624;50.042;8.436;2022-07-29T10:18:35;100146.34;;;26.64;38.66
32109;BME280;18624;50.042;8.436;2022-07-29T10:21:03;100169.22;;;26.82;39.44
32109;BME280;18624;50.042;8.436;2022-07-29T10:23:30;100242.19;;;27.21;38.15
32109;BME280;18624;50.042;8.436;2022-07-29T10:26:13;100240.88;;;27.22;38.48
32109;BME280;18624;50.042;8.436;2022-07-29T10:28:40;100175.13;;;26.70;38.14
32109;BME280;18624;50.042;8.436;2022-07-29T10:31:15;100177.69;;;26.68;39.65
32109;BME280;18624;50.042;8.436;2022-07-29T10:34:29;100239.28;;;27.14;40.40
32109;BME280;18624;50.042;8.436;2022-07-29T10:37:12;100186.16;;;26.89;39.50
32109;BME280;18624;50.042;8.436;2022-07-29T10:40:03;100214.31;;;27.10;38.68
32109;BME280;18624;50.042;8.436;2022-07-29T10:42:55;100230.59;;;27.25;38.34
32109;BME280;18624;50.042;8.436;2022-07-29T10:45:22;100131.41;;;26.48;38.37
32109;BME280;18624;50.042;8.436;2022-07-29T10:48:05;100225.97;;;27.14;38.44
32109;BME280;18624;50.042;8.436;2022-07-29T10:50:57;100211.41;;;27.02;38.63
32109;BME280;18624;50.042;8.436;2022-07-29T10:53:51;100224.47;;;27.13;39.00
32109;BME280;18624;50.042;8.436;2022-07-29T10:56:29;100225.88;;;27.20;39.39
32109;BME280;18624;50.042;8.436;2022-07-29T11:01:47;100196.53;;;27.15;39.56
32109;BME280;18624;50.042;8.436;2022-07-29T11:07:12;100127.88;;;26.90;39.09
32109;BME280;18624;50.042;8.436;2022-07-29T11:09:40;100151.94;;;27.19;38.80
32109;BME280;18624;50.042;8.436;2022-07-29T11:15:06;100113.50;;;27.01;38.13
32109;BME280;18624;50.042;8.436;2022-07-29T11:20:47;100175.94;;;27.41;38.62
32109;BME280;18624;50.042;8.436;2022-07-29T11:23:26;100209.69;;;27.62;38.36
32109;BME280;18624;50.042;8.436;2022-07-29T11:28:48;100208.38;;;27.63;37.81
32109;BME280;18624;50.042;8.436;2022-07-29T11:31:42;100139.34;;;27.13;38.31
32109;BME280;18624;50.042;8.436;2022-07-29T11:34:17;100202.75;;;27.63;37.82
32109;BME280;18624;50.042;8.436;2022-07-29T11:39:33;100198.59;;;27.64;38.32
32109;BME280;18624;50.042;8.436;2022-07-29T11:45:09;100188.88;;;27.65;38.52
32109;BME280;18624;50.042;8.436;2022-07-29T11:47:56;100192.84;;;27.70;37.93
32109;BME280;18624;50.042;8.436;2022-07-29T11:50:44;100107.09;;;27.14;38.64
32109;BME280;18624;50.042;8.436;2022-07-29T11:53:13;100092.25;;;26.92;38.11
32109;BME280;18624;50.042;8.436;2022-07-29T11:55:41;100195.25;;;27.66;37.69
32109;BME280;18624;50.042;8.436;2022-07-29T11:58:21;100157.47;;;27.33;38.01
32109;BME280;18624;50.042;8.436;2022-07-29T12:00:51;100175.09;;;27.54;38.67
32109;BME280;18624;50.042;8.436;2022-07-29T12:03:26;100159.66;;;27.47;38.53
32109;BME280;18624;50.042;8.436;2022-07-29T12:05:58;100184.19;;;27.68;38.33
32109;BME280;18624;50.042;8.436;2022-07-29T12:08:26;100166.50;;;27.60;37.92
32109;BME280;18624;50.042;8.436;2022-07-29T12:10:53;100143.56;;;27.56;39.52
32109;BME280;18624;50.042;8.436;2022-07-29T12:13:21;100142.13;;;27.62;38.61
32109;BME280;18624;50.042;8.436;2022-07-29T12:16:02;100152.56;;;27.75;38.42
32109;BME280;18624;50.042;8.436;2022-07-29T12:18:29;100134.47;;;27.70;38.58
32109;BME280;18624;50.042;8.436;2022-07-29T12:21:00;100165.03;;;27.95;39.01
32109;BME280;18624;50.042;8.436;2022-07-29T12:23:31;100127.22;;;27.75;38.40
32109;BME280;18624;50.042;8.436;2022-07-29T12:26:04;100155.84;;;27.94;37.55
32109;BME280;18624;50.042;8.436;2022-07-29T12:28:37;100130.03;;;27.83;38.22
32109;BME280;18624;50.042;8.436;2022-07-29T12:31:04;100083.13;;;27.49;38.06
32109;BME280;18624;50.042;8.436;2022-07-29T12:33:33;100137.22;;;27.84;37.36
32109;BME280;18624;50.042;8.436;2022-07-29T12:36:02;100149.97;;;27.85;37.91
32109;BME280;18624;50.042;8.436;2022-07-29T12:38:40;100107.53;;;27.54;38.64
32109;BME280;18624;50.042;8.436;2022-07-29T12:41:06;100149.75;;;27.83;37.83
32109;BME280;18624;50.042;8.436;2022-07-29T12:43:33;100140.56;;;27.82;38.27
32109;BME280;18624;50.042;8.436;2022-07-29T12:46:12;100141.16;;;27.88;38.38
32109;BME280;18624;50.042;8.436;2022-07-29T12:48:40;100137.97;;;27.92;38.53
32109;BME280;18624;50.042;8.436;2022-07-29T12:51:07;100131.44;;;27.97;38.56
32109;BME280;18624;50.042;8.436;2022-07-29T12:53:36;100138.22;;;28.01;37.82
32109;BME280;18624;50.042;8.436;2022-07-29T12:56:03;100051.41;;;27.48;37.43
32109;BME280;18624;50.042;8.436;2022-07-29T12:58:50;100006.56;;;27.14;37.41
32109;BME280;18624;50.042;8.436;2022-07-29T13:01:18;100122.03;;;27.94;38.09
32109;BME280;18624;50.042;8.436;2022-07-29T13:03:57;100132.75;;;27.96;38.50
32109;BME280;18624;50.042;8.436;2022-07-29T13:06:30;100128.06;;;27.98;38.21
32109;BME280;18624;50.042;8.436;2022-07-29T13:09:19;100124.84;;;27.94;38.26
32109;BME280;18624;50.042;8.436;2022-07-29T13:11:52;100112.63;;;27.84;37.81
32109;BME280;18624;50.042;8.436;2022-07-29T13:14:44;100088.91;;;27.72;37.82
32109;BME280;18624;50.042;8.436;2022-07-29T13:17:12;100127.53;;;28.08;37.84
32109;BME280;18624;50.042;8.436;2022-07-29T13:19:42;100137.13;;;28.12;37.90
32109;BME280;18624;50.042;8.436;2022-07-29T13:22:09;100074.81;;;27.72;38.14
32109;BME280;18624;50.042;8.436;2022-07-29T13:25:06;100136.22;;;28.17;37.87
32109;BME280;18624;50.042;8.436;2022-07-29T13:27:35;100126.66;;;28.20;37.46
32109;BME280;18624;50.042;8.436;2022-07-29T13:30:07;100113.50;;;28.15;37.96
32109;BME280;18624;50.042;8.436;2022-07-29T13:32:35;100122.34;;;28.27;37.70
32109;BME280;18624;50.042;8.436;2022-07-29T13:35:04;100122.03;;;28.38;37.13
32109;BME280;18624;50.042;8.436;2022-07-29T13:37:33;100112.25;;;28.39;37.06